createdAt,value
2023-04-15T00:01:06.020Z,2.88
2023-04-15T00:03:34.711Z,3.70
2023-04-15T00:06:02.523Z,3.42
2023-04-15T00:08:31.206Z,3.53
2023-04-15T00:11:05.726Z,4.55
2023-04-15T00:13:34.319Z,4.03
2023-04-15T00:16:02.197Z,4.20
2023-04-15T00:18:32.963Z,3.60
2023-04-15T00:21:00.286Z,3.63
2023-04-15T00:23:28.107Z,3.72
2023-04-15T00:25:55.289Z,4.20
2023-04-15T00:28:22.474Z,4.47
2023-04-15T00:30:50.262Z,4.07
2023-04-15T00:33:17.785Z,3.65
2023-04-15T00:35:45.094Z,5.10
2023-04-15T00:38:12.312Z,4.28
2023-04-15T00:40:39.809Z,3.92
2023-04-15T00:43:07.188Z,4.10
2023-04-15T00:45:34.272Z,4.03
2023-04-15T00:48:01.868Z,4.78
2023-04-15T00:50:28.932Z,4.60
2023-04-15T00:52:56.166Z,4.13
2023-04-15T00:55:23.714Z,4.35
2023-04-15T00:57:51.187Z,4.50
2023-04-15T01:00:18.336Z,4.85
2023-04-15T01:02:46.742Z,4.57
2023-04-15T01:05:17.304Z,4.93
2023-04-15T01:07:44.363Z,4.47
2023-04-15T01:10:12.124Z,4.60
2023-04-15T01:12:39.671Z,4.65
2023-04-15T01:15:09.586Z,4.57
2023-04-15T01:17:37.427Z,4.95
2023-04-15T01:20:10.657Z,5.28
2023-04-15T01:22:38.518Z,4.35
2023-04-15T01:25:15.329Z,4.57
2023-04-15T01:30:12.795Z,5.00
2023-04-15T01:32:40.077Z,5.35
2023-04-15T01:35:27.136Z,4.70
2023-04-15T01:37:55.236Z,5.50
2023-04-15T01:40:22.901Z,5.28
2023-04-15T01:42:49.854Z,4.82
2023-04-15T01:45:17.579Z,5.10
2023-04-15T01:47:45.538Z,4.97
2023-04-15T01:50:13.162Z,4.03
2023-04-15T01:52:40.340Z,4.78
2023-04-15T01:55:09.111Z,4.82
2023-04-15T01:57:37.637Z,4.97
2023-04-15T02:00:07.681Z,5.18
2023-04-15T02:02:40.657Z,5.72
2023-04-15T02:05:08.721Z,4.45
2023-04-15T02:07:37.974Z,3.47
2023-04-15T02:10:06.421Z,4.13
2023-04-15T02:12:36.936Z,5.15
2023-04-15T02:15:04.559Z,5.13
2023-04-15T02:17:35.822Z,4.90
2023-04-15T02:20:08.771Z,5.20
2023-04-15T02:22:35.968Z,5.20
2023-04-15T02:25:03.242Z,5.25
2023-04-15T02:27:32.823Z,5.35
2023-04-15T02:29:59.845Z,5.43
2023-04-15T02:32:26.857Z,4.70
2023-04-15T02:34:55.454Z,5.18
2023-04-15T02:37:23.210Z,5.85
2023-04-15T02:39:50.715Z,4.88
2023-04-15T02:42:18.778Z,4.82
2023-04-15T02:44:45.758Z,4.88
2023-04-15T02:47:12.791Z,5.15
2023-04-15T02:49:40.372Z,5.63
2023-04-15T02:52:07.913Z,4.78
2023-04-15T02:54:35.018Z,7.72
2023-04-15T02:57:02.354Z,8.80
2023-04-15T02:59:29.703Z,9.60
2023-04-15T03:02:00.984Z,6.57
2023-04-15T03:04:30.178Z,7.35
2023-04-15T03:06:57.371Z,8.13
2023-04-15T03:09:25.226Z,6.10
2023-04-15T03:11:54.725Z,5.00
2023-04-15T03:14:22.507Z,5.53
2023-04-15T03:16:50.733Z,5.30
2023-04-15T03:19:18.958Z,5.13
2023-04-15T03:21:46.130Z,4.90
2023-04-15T03:24:14.130Z,6.72
2023-04-15T03:26:41.288Z,5.78
2023-04-15T03:29:14.744Z,5.95
2023-04-15T03:31:42.148Z,5.55
2023-04-15T03:34:09.182Z,7.30
2023-04-15T03:36:36.996Z,5.85
2023-04-15T03:39:04.416Z,6.03
2023-04-15T03:41:32.924Z,6.93
2023-04-15T03:44:00.210Z,6.30
2023-04-15T03:46:27.182Z,6.00
2023-04-15T03:48:54.684Z,4.05
2023-04-15T03:51:21.686Z,5.60
2023-04-15T03:53:48.666Z,6.30
2023-04-15T03:56:15.966Z,6.20
2023-04-15T03:58:42.953Z,6.45
2023-04-15T04:01:10.043Z,6.10
2023-04-15T04:03:37.973Z,5.32
2023-04-15T04:06:05.059Z,6.60
2023-04-15T04:08:32.016Z,5.75
2023-04-15T04:11:01.127Z,6.32
2023-04-15T04:13:29.187Z,5.50
2023-04-15T04:15:56.280Z,6.07
2023-04-15T04:18:23.483Z,6.50
2023-04-15T04:20:50.576Z,5.93
2023-04-15T04:23:17.570Z,6.80
2023-04-15T04:25:44.575Z,6.57
2023-04-15T04:28:11.715Z,6.97
2023-04-15T04:30:40.509Z,6.95
2023-04-15T04:33:08.020Z,6.15
2023-04-15T04:35:37.901Z,6.78
2023-04-15T04:38:05.022Z,5.82
2023-04-15T04:40:34.215Z,6.30
2023-04-15T04:43:01.289Z,6.97
2023-04-15T04:45:28.377Z,6.40
2023-04-15T04:47:56.278Z,6.53
2023-04-15T04:50:23.609Z,5.82
2023-04-15T04:52:50.752Z,6.47
2023-04-15T04:55:17.974Z,5.82
2023-04-15T04:57:45.574Z,6.60
2023-04-15T05:00:14.146Z,6.78
2023-04-15T05:02:44.139Z,6.97
2023-04-15T05:05:12.201Z,6.07
2023-04-15T05:07:42.577Z,6.88
2023-04-15T05:10:10.176Z,7.07
2023-04-15T05:12:38.580Z,6.47
2023-04-15T05:15:07.263Z,6.97
2023-04-15T05:17:35.520Z,7.00
2023-04-15T05:20:04.076Z,6.13
2023-04-15T05:22:31.507Z,5.25
2023-04-15T05:24:58.666Z,5.03
2023-04-15T05:27:26.037Z,4.65
2023-04-15T05:29:53.067Z,5.13
2023-04-15T05:32:20.153Z,5.28
2023-04-15T05:34:47.284Z,5.55
2023-04-15T05:37:14.375Z,5.35
2023-04-15T05:39:42.311Z,5.47
2023-04-15T05:42:09.624Z,5.38
2023-04-15T05:44:37.243Z,5.55
2023-04-15T05:47:04.322Z,5.97
2023-04-15T05:49:31.389Z,6.10
2023-04-15T05:51:58.391Z,5.53
2023-04-15T05:54:27.926Z,5.95
2023-04-15T05:56:56.519Z,6.28
2023-04-15T05:59:23.607Z,5.82
2023-04-15T06:01:52.371Z,4.95
2023-04-15T06:04:19.835Z,6.28
2023-04-15T06:06:47.285Z,6.00
2023-04-15T06:09:14.372Z,6.03
2023-04-15T06:11:42.809Z,6.07
2023-04-15T06:14:10.657Z,5.40
2023-04-15T06:16:37.929Z,6.10
2023-04-15T06:19:05.086Z,6.10
2023-04-15T06:21:32.198Z,6.45
2023-04-15T06:24:01.632Z,5.95
2023-04-15T06:26:28.778Z,6.35
2023-04-15T06:28:55.843Z,6.25
2023-04-15T06:31:23.328Z,6.78
2023-04-15T06:33:50.744Z,6.50
2023-04-15T06:36:18.644Z,7.13
2023-04-15T06:38:45.738Z,6.65
2023-04-15T06:41:13.012Z,6.70
2023-04-15T06:43:40.395Z,5.90
2023-04-15T06:46:07.406Z,7.05
2023-04-15T06:48:34.483Z,6.10
2023-04-15T06:51:01.939Z,6.93
2023-04-15T06:53:35.646Z,6.30
2023-04-15T06:56:02.811Z,5.57
2023-04-15T06:58:29.975Z,4.60
2023-04-15T07:00:57.105Z,5.70
2023-04-15T07:03:24.136Z,5.60
2023-04-15T07:05:51.152Z,5.38
2023-04-15T07:08:18.996Z,4.93
2023-04-15T07:10:47.283Z,6.20
2023-04-15T07:13:14.496Z,5.82
2023-04-15T07:15:41.529Z,5.63
2023-04-15T07:18:09.662Z,6.38
2023-04-15T07:20:36.794Z,5.65
2023-04-15T07:23:03.773Z,6.40
2023-04-15T07:25:31.039Z,5.70
2023-04-15T07:27:58.330Z,5.50
2023-04-15T07:30:25.462Z,6.18
2023-04-15T07:32:52.911Z,6.35
2023-04-15T07:35:21.874Z,6.03
2023-04-15T07:37:49.381Z,7.03
2023-04-15T07:40:17.192Z,6.13
2023-04-15T07:42:44.956Z,6.68
2023-04-15T07:45:13.039Z,6.97
2023-04-15T07:47:40.968Z,5.70
2023-04-15T07:50:10.714Z,5.43
2023-04-15T07:52:40.576Z,5.95
2023-04-15T07:55:09.000Z,6.53
2023-04-15T07:57:36.897Z,6.10
2023-04-15T08:00:05.982Z,5.93
2023-04-15T08:02:40.758Z,6.07
2023-04-15T08:05:09.358Z,6.82
2023-04-15T08:07:39.901Z,6.55
2023-04-15T08:10:07.898Z,5.72
2023-04-15T08:12:35.663Z,6.22
2023-04-15T08:15:03.195Z,6.88
2023-04-15T08:17:30.273Z,7.13
2023-04-15T08:19:57.617Z,6.55
2023-04-15T08:22:25.079Z,6.63
2023-04-15T08:24:52.229Z,5.63
2023-04-15T08:27:19.537Z,5.55
2023-04-15T08:29:47.284Z,5.55
2023-04-15T08:32:15.092Z,6.00
2023-04-15T08:34:42.518Z,5.88
2023-04-15T08:37:10.850Z,5.18
2023-04-15T08:39:38.790Z,5.20
2023-04-15T08:42:12.710Z,5.43
2023-04-15T08:44:40.539Z,4.63
2023-04-15T08:47:09.074Z,4.82
2023-04-15T08:49:41.429Z,5.22
2023-04-15T08:52:09.393Z,5.25
2023-04-15T08:54:37.892Z,4.90
2023-04-15T08:57:05.550Z,4.72
2023-04-15T08:59:32.912Z,4.70
2023-04-15T09:01:59.956Z,5.05
2023-04-15T09:04:28.526Z,4.93
2023-04-15T09:06:55.632Z,4.80
2023-04-15T09:09:22.745Z,4.10
2023-04-15T09:11:51.486Z,4.63
2023-04-15T09:14:18.528Z,3.55
2023-04-15T09:17:05.485Z,4.30
2023-04-15T09:19:34.601Z,3.53
2023-04-15T09:22:02.863Z,3.20
2023-04-15T09:24:39.568Z,3.60
2023-04-15T09:27:08.374Z,11.30
2023-04-15T09:29:37.144Z,3.17
2023-04-15T09:32:16.175Z,4.18
2023-04-15T09:34:44.796Z,3.60
2023-04-15T09:37:28.588Z,2.85
2023-04-15T09:39:58.464Z,3.13
2023-04-15T09:42:26.920Z,3.75
2023-04-15T09:44:54.325Z,5.15
2023-04-15T09:47:29.410Z,10.27
2023-04-15T09:49:58.720Z,4.03
2023-04-15T09:52:26.165Z,4.10
2023-04-15T09:54:58.720Z,3.72
2023-04-15T09:57:25.902Z,4.35
2023-04-15T09:59:52.964Z,5.10
2023-04-15T10:02:23.725Z,2.95
2023-04-15T10:04:52.553Z,5.55
2023-04-15T10:07:22.619Z,3.90
2023-04-15T10:09:50.127Z,4.20
2023-04-15T10:12:19.404Z,4.00
2023-04-15T10:14:54.278Z,5.05
2023-04-15T10:17:23.635Z,3.65
2023-04-15T10:19:55.125Z,3.05
2023-04-15T10:22:27.337Z,4.72
2023-04-15T10:24:56.560Z,3.20
2023-04-15T10:27:24.587Z,3.38
2023-04-15T10:29:51.913Z,3.55
2023-04-15T10:32:24.531Z,4.10
2023-04-15T10:34:54.431Z,3.35
2023-04-15T10:37:33.706Z,3.97
2023-04-15T10:40:01.017Z,3.72
2023-04-15T10:42:35.469Z,3.60
2023-04-15T10:45:02.637Z,3.53
2023-04-15T10:47:29.759Z,3.53
2023-04-15T10:50:02.542Z,3.17
2023-04-15T10:52:30.154Z,3.50
2023-04-15T10:55:24.326Z,3.47
2023-04-15T10:57:59.131Z,3.55
2023-04-15T11:00:28.910Z,3.42
2023-04-15T11:03:06.543Z,2.70
2023-04-15T11:05:43.188Z,3.22
2023-04-15T11:08:11.410Z,2.80
2023-04-15T11:10:38.420Z,3.38
2023-04-15T11:13:17.330Z,3.90
2023-04-15T11:15:48.864Z,7.05
2023-04-15T11:18:23.658Z,3.70
2023-04-15T11:21:07.627Z,4.35
2023-04-15T11:23:48.845Z,2.10
2023-04-15T11:26:16.364Z,2.95
2023-04-15T11:28:45.799Z,2.78
2023-04-15T11:31:16.513Z,2.40
2023-04-15T11:33:59.514Z,3.55
2023-04-15T11:36:29.399Z,4.53
2023-04-15T11:38:59.910Z,4.93
2023-04-15T11:41:27.117Z,5.13
2023-04-15T11:43:54.150Z,4.28
2023-04-15T11:46:22.999Z,4.57
2023-04-15T11:48:50.266Z,3.55
2023-04-15T11:51:17.364Z,3.25
2023-04-15T11:53:47.667Z,3.97
2023-04-15T11:56:22.436Z,3.80
2023-04-15T11:58:54.368Z,3.42
2023-04-15T12:01:21.679Z,3.58
2023-04-15T12:03:50.352Z,4.55
2023-04-15T12:06:23.613Z,4.20
2023-04-15T12:09:04.832Z,4.65
2023-04-15T12:11:44.603Z,4.40
2023-04-15T12:14:33.557Z,3.72
2023-04-15T12:17:06.071Z,4.15
2023-04-15T12:19:38.551Z,3.92
2023-04-15T12:22:14.321Z,4.22
2023-04-15T12:24:53.110Z,3.42
2023-04-15T12:27:21.297Z,3.60
2023-04-15T12:29:48.467Z,3.70
2023-04-15T12:32:17.268Z,4.70
2023-04-15T12:34:58.278Z,4.97
2023-04-15T12:37:26.219Z,3.83
2023-04-15T12:39:54.119Z,4.68
2023-04-15T12:42:22.549Z,4.90
2023-04-15T12:44:49.952Z,5.75
2023-04-15T12:47:17.194Z,5.80
2023-04-15T12:49:44.229Z,5.65
2023-04-15T12:52:11.355Z,6.93
2023-04-15T12:54:39.365Z,5.72
2023-04-15T12:57:07.464Z,4.50
2023-04-15T12:59:35.772Z,5.28
2023-04-15T13:02:03.616Z,5.72
2023-04-15T13:04:31.581Z,6.25
2023-04-15T13:06:58.990Z,5.97
2023-04-15T13:09:26.082Z,6.05
2023-04-15T13:11:54.640Z,4.65
2023-04-15T13:14:22.067Z,5.22
2023-04-15T13:16:49.205Z,5.00
2023-04-15T13:19:16.410Z,5.18
2023-04-15T13:21:47.092Z,5.03
2023-04-15T13:24:14.018Z,4.38
2023-04-15T13:26:41.082Z,3.92
2023-04-15T13:29:08.192Z,4.47
2023-04-15T13:31:35.643Z,4.07
2023-04-15T13:36:29.813Z,4.38
2023-04-15T13:38:57.838Z,5.20
2023-04-15T13:41:24.987Z,5.32
2023-04-15T13:43:52.472Z,6.05
2023-04-15T13:46:19.944Z,6.07
2023-04-15T13:48:47.182Z,5.55
2023-04-15T13:51:14.108Z,6.28
2023-04-15T13:53:41.086Z,5.72
2023-04-15T13:56:08.888Z,4.50
2023-04-15T13:58:37.756Z,4.57
2023-04-15T14:01:06.986Z,3.92
2023-04-15T14:03:36.990Z,4.03
2023-04-15T14:06:05.907Z,4.72
2023-04-15T14:08:33.230Z,4.88
2023-04-15T14:11:00.808Z,5.10
2023-04-15T14:13:28.201Z,4.45
2023-04-15T14:15:56.954Z,4.07
2023-04-15T14:18:23.984Z,5.32
2023-04-15T14:20:51.154Z,5.10
2023-04-15T14:23:19.306Z,5.80
2023-04-15T14:25:48.389Z,5.80
2023-04-15T14:28:15.856Z,5.60
2023-04-15T14:30:42.946Z,6.40
2023-04-15T14:33:10.028Z,7.55
2023-04-15T14:35:37.103Z,5.80
2023-04-15T14:38:05.967Z,5.68
2023-04-15T14:40:33.843Z,5.70
2023-04-15T14:43:00.946Z,5.40
2023-04-15T14:45:28.110Z,5.28
2023-04-15T14:47:55.298Z,5.05
2023-04-15T14:50:22.517Z,5.30
2023-04-15T14:52:49.504Z,5.10
2023-04-15T14:55:17.102Z,5.20
2023-04-15T14:57:44.079Z,5.68
2023-04-15T15:00:14.477Z,5.65
2023-04-15T15:02:43.450Z,5.18
2023-04-15T15:05:12.013Z,5.05
2023-04-15T15:07:43.603Z,5.63
2023-04-15T15:10:10.948Z,5.40
2023-04-15T15:12:38.046Z,6.38
2023-04-15T15:15:15.676Z,5.13
2023-04-15T15:17:47.254Z,5.40
2023-04-15T15:20:14.337Z,5.43
2023-04-15T15:22:41.299Z,6.60
2023-04-15T15:25:08.526Z,5.65
2023-04-15T15:27:38.161Z,6.95
2023-04-15T15:30:06.958Z,5.70
2023-04-15T15:32:34.365Z,6.70
2023-04-15T15:35:01.650Z,5.80
2023-04-15T15:37:31.497Z,6.28
2023-04-15T15:39:58.978Z,7.72
2023-04-15T15:42:26.154Z,7.93
2023-04-15T15:44:53.299Z,8.23
2023-04-15T15:47:22.186Z,6.95
2023-04-15T15:49:49.483Z,6.43
2023-04-15T15:52:16.472Z,5.13
2023-04-15T15:54:43.740Z,6.95
2023-04-15T15:57:11.306Z,6.65
2023-04-15T15:59:44.019Z,6.18
2023-04-15T16:02:12.769Z,6.78
2023-04-15T16:04:40.761Z,6.38
2023-04-15T16:07:07.921Z,6.28
2023-04-15T16:09:35.432Z,6.35
2023-04-15T16:12:04.208Z,6.47
2023-04-15T16:14:32.030Z,6.78
2023-04-15T16:16:59.298Z,6.35
2023-04-15T16:19:26.401Z,6.50
2023-04-15T16:21:54.183Z,6.35
2023-04-15T16:24:21.326Z,6.38
2023-04-15T16:26:48.357Z,5.47
2023-04-15T16:29:15.663Z,6.70
2023-04-15T16:31:42.733Z,5.55
2023-04-15T16:34:10.275Z,6.30
2023-04-15T16:36:40.397Z,6.85
2023-04-15T16:39:07.908Z,6.40
2023-04-15T16:41:35.404Z,5.38
2023-04-15T16:44:03.400Z,5.57
2023-04-15T16:46:31.134Z,5.50
2023-04-15T16:48:58.426Z,5.57
2023-04-15T16:51:26.016Z,5.38
2023-04-15T16:53:53.566Z,6.60
2023-04-15T16:56:22.142Z,5.40
2023-04-15T16:58:49.630Z,6.93
2023-04-15T17:01:16.991Z,6.60
2023-04-15T17:03:45.207Z,6.10
2023-04-15T17:06:12.798Z,7.05
2023-04-15T17:08:40.490Z,8.27
2023-04-15T17:11:07.989Z,8.13
2023-04-15T17:13:35.166Z,7.47
2023-04-15T17:16:03.067Z,8.43
2023-04-15T17:18:38.935Z,8.30
2023-04-15T17:21:17.202Z,8.32
2023-04-15T17:23:47.114Z,8.27
2023-04-15T17:26:15.581Z,8.00
2023-04-15T17:28:43.174Z,8.70
2023-04-15T17:31:14.164Z,9.35
2023-04-15T17:34:09.374Z,6.57
2023-04-15T17:36:37.272Z,4.40
2023-04-15T17:39:04.805Z,4.53
2023-04-15T17:41:52.040Z,3.30
2023-04-15T17:44:19.414Z,3.47
2023-04-15T17:47:07.258Z,4.15
2023-04-15T17:49:54.165Z,3.33
2023-04-15T17:52:41.668Z,3.00
2023-04-15T17:55:29.152Z,3.08
2023-04-15T17:58:16.282Z,3.13
2023-04-15T18:01:03.363Z,3.00
2023-04-15T18:03:50.651Z,3.13
2023-04-15T18:06:38.049Z,2.75
2023-04-15T18:09:25.368Z,3.13
2023-04-15T18:12:12.328Z,2.03
2023-04-15T18:14:59.847Z,3.03
2023-04-15T18:17:47.966Z,2.55
2023-04-15T18:20:15.774Z,2.85
2023-04-15T18:22:45.337Z,2.58
2023-04-15T18:25:12.245Z,2.30
2023-04-15T18:27:39.433Z,2.10
2023-04-15T18:30:09.819Z,2.08
2023-04-15T18:32:36.962Z,2.03
2023-04-15T18:35:06.015Z,3.13
2023-04-15T18:37:33.490Z,2.88
2023-04-15T18:40:01.445Z,2.42
2023-04-15T18:42:28.374Z,2.28
2023-04-15T18:44:55.423Z,1.30
2023-04-15T18:47:23.073Z,1.55
2023-04-15T18:49:50.896Z,1.63
2023-04-15T18:52:17.926Z,1.50
2023-04-15T18:54:44.938Z,1.55
2023-04-15T18:57:12.145Z,1.10
2023-04-15T18:59:39.118Z,2.25
2023-04-15T19:02:07.553Z,0.82
2023-04-15T19:04:35.028Z,0.82
2023-04-15T19:07:02.259Z,0.82
2023-04-15T19:09:29.962Z,0.73
2023-04-15T19:11:57.674Z,1.23
2023-04-15T19:14:24.704Z,1.27
2023-04-15T19:16:52.447Z,1.10
2023-04-15T19:19:19.974Z,1.40
2023-04-15T19:21:49.854Z,1.10
2023-04-15T19:24:18.193Z,1.30
2023-04-15T19:26:49.870Z,1.02
2023-04-15T19:29:17.738Z,1.20
2023-04-15T19:31:45.381Z,0.63
2023-04-15T19:34:12.667Z,1.48
2023-04-15T19:36:39.740Z,1.35
2023-04-15T19:39:07.511Z,1.65
2023-04-15T19:41:34.652Z,1.73
2023-04-15T19:44:03.185Z,1.35
2023-04-15T19:46:30.770Z,1.98
2023-04-15T19:48:58.107Z,2.50
2023-04-15T19:51:26.141Z,2.00
2023-04-15T19:53:56.296Z,2.17
2023-04-15T19:56:24.116Z,1.75
2023-04-15T19:58:53.088Z,1.52
2023-04-15T20:01:20.648Z,1.77
2023-04-15T20:03:48.590Z,1.92
2023-04-15T20:06:15.956Z,2.10
2023-04-15T20:08:43.219Z,2.55
2023-04-15T20:11:11.227Z,2.75
2023-04-15T20:13:43.424Z,3.03
2023-04-15T20:16:11.963Z,2.30
2023-04-15T20:18:39.219Z,2.35
2023-04-15T20:21:06.224Z,1.85
2023-04-15T20:23:35.128Z,1.40
2023-04-15T20:26:02.064Z,1.60
2023-04-15T20:28:29.049Z,1.83
2023-04-15T20:30:56.508Z,2.13
2023-04-15T20:33:25.860Z,2.13
2023-04-15T20:35:53.905Z,1.77
2023-04-15T20:38:21.908Z,1.95
2023-04-15T20:40:48.948Z,2.00
2023-04-15T20:43:16.000Z,2.10
2023-04-15T20:45:42.992Z,2.50
2023-04-15T20:48:10.937Z,1.42
2023-04-15T20:50:38.957Z,1.90
2023-04-15T20:53:06.089Z,1.73
2023-04-15T20:55:33.027Z,1.73
2023-04-15T20:58:00.050Z,1.83
2023-04-15T21:00:27.193Z,1.67
2023-04-15T21:02:54.340Z,1.42
2023-04-15T21:05:21.632Z,1.17
2023-04-15T21:07:48.598Z,1.40
2023-04-15T21:10:15.832Z,1.83
2023-04-15T21:12:43.010Z,1.10
2023-04-15T21:15:10.774Z,1.55
2023-04-15T21:17:39.114Z,0.98
2023-04-15T21:20:07.960Z,1.30
2023-04-15T21:22:35.273Z,1.58
2023-04-15T21:25:03.264Z,1.15
2023-04-15T21:27:30.587Z,1.08
2023-04-15T21:29:57.545Z,0.82
2023-04-15T21:32:24.569Z,0.70
2023-04-15T21:34:51.738Z,1.30
2023-04-15T21:37:18.819Z,0.85
2023-04-15T21:39:45.857Z,1.05
2023-04-15T21:42:12.883Z,1.00
2023-04-15T21:44:39.950Z,1.00
2023-04-15T21:47:07.005Z,0.50
2023-04-15T21:49:34.076Z,0.73
2023-04-15T21:52:01.480Z,0.63
2023-04-15T21:54:28.579Z,0.77
2023-04-15T21:56:57.012Z,0.80
2023-04-15T21:59:25.316Z,1.05
2023-04-15T22:01:52.480Z,0.65
2023-04-15T22:04:19.688Z,0.60
2023-04-15T22:06:47.121Z,0.70
2023-04-15T22:09:14.579Z,0.70
2023-04-15T22:11:41.725Z,0.73
2023-04-15T22:14:09.151Z,0.57
2023-04-15T22:16:36.311Z,0.50
2023-04-15T22:19:03.504Z,0.80
2023-04-15T22:21:30.516Z,1.02
2023-04-15T22:24:33.539Z,0.60
2023-04-15T22:26:44.663Z,0.60
2023-04-15T22:29:12.821Z,1.00
2023-04-15T22:31:39.930Z,0.55
2023-04-15T22:34:06.936Z,0.70
2023-04-15T22:36:34.055Z,0.50
2023-04-15T22:39:01.075Z,1.20
2023-04-15T22:41:28.288Z,0.60
2023-04-15T22:43:55.551Z,0.80
2023-04-15T22:46:22.609Z,0.63
2023-04-15T22:48:49.670Z,0.60
2023-04-15T22:51:22.710Z,0.50
2023-04-15T22:53:50.709Z,0.90
2023-04-15T22:56:21.925Z,0.60
2023-04-15T22:58:49.986Z,0.95
2023-04-15T23:01:18.239Z,0.75
2023-04-15T23:03:57.487Z,0.22
2023-04-15T23:06:32.894Z,2.15
2023-04-15T23:09:00.020Z,0.77
2023-04-15T23:11:27.460Z,0.50
2023-04-15T23:13:54.466Z,0.60
2023-04-15T23:16:22.156Z,0.35
2023-04-15T23:18:49.208Z,0.50
2023-04-15T23:21:17.026Z,0.65
2023-04-15T23:23:44.269Z,0.50
2023-04-15T23:26:11.574Z,0.70
2023-04-15T23:28:38.639Z,0.28
2023-04-15T23:31:06.924Z,0.40
2023-04-15T23:33:34.447Z,0.60
2023-04-15T23:36:01.699Z,0.88
2023-04-15T23:38:28.648Z,1.17
2023-04-15T23:40:55.572Z,0.30
2023-04-15T23:43:22.574Z,0.30
2023-04-15T23:45:49.576Z,0.45
2023-04-15T23:48:16.948Z,0.47
2023-04-15T23:50:44.001Z,0.52
2023-04-15T23:53:11.101Z,0.30
2023-04-15T23:55:38.158Z,0.40
2023-04-15T23:58:05.083Z,0.45
